Time;durP1;ratioP1;P1;durP2;ratioP2;P2;SDS_P1;SDS_P2;PMS_P1;PMS_P2;Temp;Humidity;BMP_temperature;BMP_pressure;BME280_temperature;BME280_humidity;BME280_pressure;Samples;Min_cycle;Max_cycle;Signal;HPM_P1;HPM_P2
2023/06/01 00:02:11;;;;;;;13.98;9.18;;;;;;;;;;5032279;28;20034;-75
2023/06/01 00:04:41;;;;;;;11.27;9.35;;;;;;;;;;5031628;28;20132;-76
2023/06/01 00:07:07;;;;;;;11.05;8.98;;;;;;;;;;5014471;28;20048;-75
2023/06/01 00:09:34;;;;;;;17.67;10.75;;;;;;;;;;5031851;28;20063;-76
2023/06/01 00:12:00;;;;;;;13.55;9.25;;;;;;;;;;5031970;28;20104;-75
2023/06/01 00:14:26;;;;;;;16.52;10.02;;;;;;;;;;4998132;28;20103;-77
2023/06/01 00:16:52;;;;;;;15.23;10.55;;;;;;;;;;5031805;28;20045;-75
2023/06/01 00:19:20;;;;;;;12.07;9.40;;;;;;;;;;5031739;28;20488;-76
2023/06/01 00:21:46;;;;;;;12.15;9.30;;;;;;;;;;5031767;28;20041;-75
2023/06/01 00:24:12;;;;;;;13.23;8.50;;;;;;;;;;5014389;28;20049;-75
2023/06/01 00:26:38;;;;;;;5.20;4.70;;;;;;;;;;5032391;28;20037;-75
2023/06/01 00:29:04;;;;;;;15.68;8.93;;;;;;;;;;5032741;28;20041;-75
2023/06/01 00:31:31;;;;;;;15.00;6.95;;;;;;;;;;5032564;28;20064;-76
2023/06/01 00:33:57;;;;;;;24.17;14.05;;;;;;;;;;5031509;28;20076;-76
2023/06/01 00:36:23;;;;;;;10.95;8.13;;;;;;;;;;5037211;28;20048;-76
2023/06/01 00:38:50;;;;;;;12.35;8.65;;;;;;;;;;5006088;28;20037;-75
2023/06/01 00:41:16;;;;;;;12.82;8.77;;;;;;;;;;5030291;28;20498;-75
2023/06/01 00:43:42;;;;;;;19.45;9.10;;;;;;;;;;5013464;28;20045;-75
2023/06/01 00:46:08;;;;;;;14.75;8.90;;;;;;;;;;5013725;28;20048;-77
2023/06/01 00:48:35;;;;;;;15.00;9.38;;;;;;;;;;5013509;28;20049;-75
2023/06/01 00:51:01;;;;;;;13.77;9.57;;;;;;;;;;5012457;28;20037;-75
2023/06/01 00:53:27;;;;;;;10.45;7.88;;;;;;;;;;5031175;28;20053;-75
2023/06/01 00:55:53;;;;;;;9.73;8.05;;;;;;;;;;5030908;28;20120;-76
2023/06/01 00:58:19;;;;;;;9.05;7.60;;;;;;;;;;5002804;28;20137;-75
2023/06/01 01:00:48;;;;;;;16.55;7.95;;;;;;;;;;5011119;28;20422;-78
2023/06/01 01:03:15;;;;;;;6.80;6.20;;;;;;;;;;4994162;28;20049;-77
2023/06/01 01:05:42;;;;;;;12.13;7.85;;;;;;;;;;4994461;28;20050;-75
2023/06/01 01:08:17;;;;;;;10.75;7.55;;;;;;;;;;5011631;28;20093;-74
2023/06/01 01:10:52;;;;;;;13.68;7.03;;;;;;;;;;5010277;28;20065;-75
2023/06/01 01:13:18;;;;;;;11.50;6.80;;;;;;;;;;5011598;28;20050;-76
2023/06/01 01:15:44;;;;;;;13.15;7.07;;;;;;;;;;5011007;28;20425;-74
2023/06/01 01:18:19;;;;;;;9.23;7.28;;;;;;;;;;5011288;28;20136;-76
2023/06/01 01:20:48;;;;;;;7.30;6.15;;;;;;;;;;4977295;28;20477;-76
2023/06/01 01:23:16;;;;;;;12.80;6.60;;;;;;;;;;4993502;28;20072;-75
2023/06/01 01:26:02;;;;;;;8.25;6.38;;;;;;;;;;5009488;28;20041;-75
2023/06/01 01:28:47;;;;;;;10.05;6.15;;;;;;;;;;5009713;28;20065;-75
2023/06/01 01:31:15;;;;;;;12.20;5.85;;;;;;;;;;5010868;28;20135;-77
2023/06/01 01:33:42;;;;;;;9.80;5.78;;;;;;;;;;4992963;28;20159;-76
2023/06/01 01:36:09;;;;;;;12.40;6.25;;;;;;;;;;5010793;28;20183;-75
2023/06/01 01:38:35;;;;;;;7.85;6.43;;;;;;;;;;4976990;28;20199;-74
2023/06/01 01:41:02;;;;;;;10.35;5.75;;;;;;;;;;5010372;28;20046;-76
2023/06/01 01:43:28;;;;;;;8.52;6.15;;;;;;;;;;4993025;28;20053;-73
2023/06/01 01:46:08;;;;;;;6.70;5.95;;;;;;;;;;4992890;28;20232;-75
2023/06/01 01:48:37;;;;;;;9.43;5.25;;;;;;;;;;5010486;28;20026;-75
2023/06/01 01:51:03;;;;;;;7.93;5.05;;;;;;;;;;5010176;28;20057;-76
2023/06/01 01:53:30;;;;;;;10.07;5.30;;;;;;;;;;4976975;28;20070;-75
2023/06/01 01:55:56;;;;;;;8.02;5.50;;;;;;;;;;4992697;28;20050;-75
2023/06/01 01:58:23;;;;;;;8.48;5.80;;;;;;;;;;4992759;28;20584;-75
2023/06/01 02:00:49;;;;;;;4.57;4.20;;;;;;;;;;4992683;28;20049;-75
2023/06/01 02:03:16;;;;;;;6.07;4.72;;;;;;;;;;4992640;28;20041;-75
2023/06/01 02:05:42;;;;;;;6.35;5.68;;;;;;;;;;4960404;28;20496;-75
2023/06/01 02:08:08;;;;;;;7.68;4.97;;;;;;;;;;4992878;28;20560;-76
2023/06/01 02:10:35;;;;;;;5.50;5.00;;;;;;;;;;4992634;28;20506;-76
2023/06/01 02:13:02;;;;;;;6.18;5.40;;;;;;;;;;4992214;28;20116;-76
2023/06/01 02:15:29;;;;;;;7.80;5.30;;;;;;;;;;4992748;28;20050;-76
2023/06/01 02:17:55;;;;;;;14.45;5.70;;;;;;;;;;4992492;28;20041;-77
2023/06/01 02:20:41;;;;;;;10.10;4.85;;;;;;;;;;4995592;28;20042;-75
2023/06/01 02:23:08;;;;;;;7.30;4.55;;;;;;;;;;5015212;28;20601;-76
2023/06/01 02:25:34;;;;;;;6.55;5.40;;;;;;;;;;5009187;28;20125;-76
2023/06/01 02:28:01;;;;;;;5.40;4.57;;;;;;;;;;4976238;28;20061;-76
2023/06/01 02:30:27;;;;;;;7.40;4.75;;;;;;;;;;5009120;28;20041;-76
2023/06/01 02:32:54;;;;;;;7.95;4.82;;;;;;;;;;4976055;28;20149;-76
2023/06/01 02:35:20;;;;;;;4.78;4.20;;;;;;;;;;5010236;28;20439;-76
2023/06/01 02:37:46;;;;;;;8.98;5.63;;;;;;;;;;4977261;28;20096;-75
2023/06/01 02:40:12;;;;;;;8.52;4.88;;;;;;;;;;4997997;28;20042;-76
2023/06/01 02:42:39;;;;;;;10.57;4.40;;;;;;;;;;5019151;28;20049;-77
2023/06/01 02:45:06;;;;;;;5.18;4.68;;;;;;;;;;5005941;28;20046;-75
2023/06/01 02:47:32;;;;;;;5.47;4.60;;;;;;;;;;4994291;28;20538;-75
2023/06/01 02:49:58;;;;;;;4.65;4.25;;;;;;;;;;4992115;28;20058;-76
2023/06/01 02:52:24;;;;;;;5.00;4.50;;;;;;;;;;5009891;28;20050;-76
2023/06/01 02:54:51;;;;;;;5.35;4.30;;;;;;;;;;5008448;28;20050;-76
2023/06/01 02:57:49;;;;;;;7.97;4.13;;;;;;;;;;4991658;28;20050;-77
2023/06/01 03:00:17;;;;;;;4.38;3.38;;;;;;;;;;5028399;28;20048;-77
2023/06/01 03:02:45;;;;;;;4.60;4.20;;;;;;;;;;5011838;28;20047;-77
2023/06/01 03:05:17;;;;;;;5.90;3.78;;;;;;;;;;5011824;28;20042;-77
2023/06/01 03:07:48;;;;;;;4.53;4.05;;;;;;;;;;5011674;28;20049;-77
2023/06/01 03:10:24;;;;;;;4.70;4.30;;;;;;;;;;5011898;28;20045;-78
2023/06/01 03:13:11;;;;;;;5.90;4.40;;;;;;;;;;5015042;28;20107;-78
2023/06/01 03:15:38;;;;;;;4.35;3.67;;;;;;;;;;5031828;28;20478;-77
2023/06/01 03:18:05;;;;;;;4.97;4.18;;;;;;;;;;5015333;28;20047;-76
2023/06/01 03:20:31;;;;;;;6.40;4.30;;;;;;;;;;5032459;28;20509;-78
2023/06/01 03:22:58;;;;;;;7.82;3.78;;;;;;;;;;5015108;28;20037;-78
2023/06/01 03:25:27;;;;;;;4.90;4.35;;;;;;;;;;5015200;28;20068;-77
2023/06/01 03:27:53;;;;;;;6.05;4.10;;;;;;;;;;5032698;28;20076;-76
2023/06/01 03:30:19;;;;;;;4.03;3.70;;;;;;;;;;5015208;28;20076;-76
2023/06/01 03:32:46;;;;;;;5.25;3.35;;;;;;;;;;5015092;28;20053;-77
2023/06/01 03:35:12;;;;;;;4.03;3.65;;;;;;;;;;5032915;28;20034;-77
2023/06/01 03:37:38;;;;;;;10.13;4.00;;;;;;;;;;5032698;28;20081;-77
2023/06/01 03:40:11;;;;;;;5.25;3.47;;;;;;;;;;4998327;28;20477;-77
2023/06/01 03:42:41;;;;;;;5.65;3.85;;;;;;;;;;5014851;28;20375;-78
2023/06/01 03:45:10;;;;;;;4.15;3.75;;;;;;;;;;5014645;28;20045;-77
2023/06/01 03:47:36;;;;;;;8.93;4.15;;;;;;;;;;5014792;28;20045;-77
2023/06/01 03:50:03;;;;;;;4.30;3.90;;;;;;;;;;5014522;28;20536;-77
2023/06/01 03:52:30;;;;;;;3.92;3.63;;;;;;;;;;5014815;28;20057;-77
2023/06/01 03:54:57;;;;;;;4.47;3.58;;;;;;;;;;5014379;28;20044;-77
2023/06/01 03:57:51;;;;;;;8.50;3.72;;;;;;;;;;4994980;28;20075;-77
2023/06/01 04:00:20;;;;;;;10.57;3.30;;;;;;;;;;5012463;28;20422;-77
2023/06/01 04:02:57;;;;;;;4.22;3.28;;;;;;;;;;5012302;28;20052;-77
2023/06/01 04:05:24;;;;;;;7.80;3.88;;;;;;;;;;4996325;28;20046;-76
2023/06/01 04:07:50;;;;;;;3.60;3.30;;;;;;;;;;5005242;28;20049;-77
2023/06/01 04:10:17;;;;;;;5.43;3.30;;;;;;;;;;4995286;28;20033;-77
2023/06/01 04:12:43;;;;;;;4.57;3.60;;;;;;;;;;5012278;28;20077;-77
2023/06/01 04:15:10;;;;;;;6.40;3.72;;;;;;;;;;5010683;28;20517;-77
2023/06/01 04:17:37;;;;;;;6.03;3.50;;;;;;;;;;4994601;28;20049;-78
2023/06/01 04:20:10;;;;;;;4.65;3.53;;;;;;;;;;4994269;28;20103;-76
2023/06/01 04:22:40;;;;;;;9.20;4.13;;;;;;;;;;4994583;28;20045;-76
2023/06/01 04:25:16;;;;;;;15.45;4.00;;;;;;;;;;4993588;28;20475;-78
2023/06/01 04:27:44;;;;;;;3.60;3.40;;;;;;;;;;4994490;28;20042;-78
2023/06/01 04:30:12;;;;;;;6.03;3.45;;;;;;;;;;5010261;28;20080;-78
2023/06/01 04:32:38;;;;;;;6.57;3.80;;;;;;;;;;4994205;28;20451;-77
2023/06/01 04:35:05;;;;;;;7.13;3.97;;;;;;;;;;5010259;28;20041;-78
2023/06/01 04:37:35;;;;;;;5.45;3.75;;;;;;;;;;4994888;28;20417;-78
2023/06/01 04:40:09;;;;;;;5.75;3.70;;;;;;;;;;4993789;28;20418;-78
2023/06/01 04:42:38;;;;;;;5.05;3.75;;;;;;;;;;5010469;28;20103;-78
2023/06/01 04:45:07;;;;;;;5.85;4.00;;;;;;;;;;4993784;28;20057;-78
2023/06/01 04:47:40;;;;;;;10.48;3.80;;;;;;;;;;4993968;28;20049;-77
2023/06/01 04:50:11;;;;;;;4.95;3.60;;;;;;;;;;4993632;28;20449;-76
2023/06/01 04:52:37;;;;;;;7.97;3.58;;;;;;;;;;4994536;28;20395;-78
2023/06/01 04:55:07;;;;;;;5.05;3.38;;;;;;;;;;4993655;28;20045;-77
2023/06/01 04:57:33;;;;;;;9.18;4.03;;;;;;;;;;5010987;28;20046;-76
2023/06/01 05:00:00;;;;;;;3.40;3.20;;;;;;;;;;5010002;28;20053;-77
2023/06/01 05:02:26;;;;;;;6.03;3.50;;;;;;;;;;4993733;28;20061;-77
2023/06/01 05:04:53;;;;;;;5.20;3.15;;;;;;;;;;5010816;28;20077;-76
2023/06/01 05:07:21;;;;;;;9.25;3.60;;;;;;;;;;5011243;28;20080;-78
2023/06/01 05:09:47;;;;;;;4.57;3.55;;;;;;;;;;5009799;28;20125;-75
2023/06/01 05:12:13;;;;;;;4.20;3.38;;;;;;;;;;4993350;28;20137;-76
2023/06/01 05:14:39;;;;;;;10.55;3.60;;;;;;;;;;4993534;28;20467;-77
2023/06/01 05:17:06;;;;;;;13.57;4.07;;;;;;;;;;4993501;28;20525;-77
2023/06/01 05:19:32;;;;;;;7.07;3.80;;;;;;;;;;4993384;28;20050;-77
2023/06/01 05:21:58;;;;;;;6.28;3.42;;;;;;;;;;4993260;28;20052;-77
2023/06/01 05:24:24;;;;;;;6.05;3.90;;;;;;;;;;5010849;28;20115;-77
2023/06/01 05:26:51;;;;;;;6.35;3.60;;;;;;;;;;4993211;28;20053;-77
2023/06/01 05:29:17;;;;;;;6.47;3.60;;;;;;;;;;4992946;28;20057;-78
2023/06/01 05:31:43;;;;;;;7.30;3.35;;;;;;;;;;5010969;28;20437;-79
2023/06/01 05:34:10;;;;;;;9.68;3.22;;;;;;;;;;4993314;28;20081;-78
2023/06/01 05:36:36;;;;;;;3.90;2.67;;;;;;;;;;5010601;28;20041;-77
2023/06/01 05:39:03;;;;;;;7.82;3.47;;;;;;;;;;4992450;28;20093;-77
2023/06/01 05:41:29;;;;;;;6.88;3.20;;;;;;;;;;4992955;28;20414;-77
2023/06/01 05:43:57;;;;;;;3.50;3.20;;;;;;;;;;4992811;28;20124;-78
2023/06/01 05:46:24;;;;;;;8.95;2.85;;;;;;;;;;4993187;28;20042;-77
2023/06/01 05:48:51;;;;;;;5.70;3.30;;;;;;;;;;5009720;28;20045;-77
2023/06/01 05:51:17;;;;;;;4.10;3.03;;;;;;;;;;4978565;28;20180;-77
2023/06/01 05:53:44;;;;;;;4.10;3.20;;;;;;;;;;4998526;28;20060;-78
2023/06/01 05:56:10;;;;;;;10.00;3.50;;;;;;;;;;4993648;28;20042;-77
2023/06/01 05:58:37;;;;;;;5.03;3.72;;;;;;;;;;5015049;28;20064;-78
2023/06/01 06:01:03;;;;;;;7.38;2.95;;;;;;;;;;5039203;28;20051;-77
2023/06/01 06:03:30;;;;;;;5.72;3.20;;;;;;;;;;5030710;28;20099;-77
2023/06/01 06:05:56;;;;;;;5.82;3.03;;;;;;;;;;5029995;28;20063;-77
2023/06/01 06:08:21;;;;;;;3.90;3.17;;;;;;;;;;5030381;28;20117;-78
2023/06/01 06:10:47;;;;;;;4.07;3.20;;;;;;;;;;5030044;28;20045;-78
2023/06/01 06:13:14;;;;;;;5.32;3.20;;;;;;;;;;5029789;28;20085;-78
2023/06/01 06:15:40;;;;;;;7.20;3.30;;;;;;;;;;5012295;28;20056;-78
2023/06/01 06:18:06;;;;;;;5.18;3.10;;;;;;;;;;5011985;28;20132;-78
2023/06/01 06:20:32;;;;;;;4.93;2.97;;;;;;;;;;5030118;28;20049;-78
2023/06/01 06:22:58;;;;;;;8.15;3.00;;;;;;;;;;5029484;28;20044;-78
2023/06/01 06:25:25;;;;;;;4.28;2.80;;;;;;;;;;5012190;28;20053;-77
2023/06/01 06:27:52;;;;;;;4.22;3.30;;;;;;;;;;5012071;28;20049;-77
2023/06/01 06:30:18;;;;;;;4.03;3.15;;;;;;;;;;5029553;28;20320;-77
2023/06/01 06:32:44;;;;;;;3.33;2.90;;;;;;;;;;5029855;28;20675;-77
2023/06/01 06:35:13;;;;;;;3.22;2.60;;;;;;;;;;5028244;28;20503;-78
2023/06/01 06:37:40;;;;;;;4.20;2.70;;;;;;;;;;5029749;28;20044;-77
2023/06/01 06:40:06;;;;;;;4.20;3.17;;;;;;;;;;5029499;28;20046;-78
2023/06/01 06:42:32;;;;;;;3.92;2.80;;;;;;;;;;5029840;28;20430;-77
2023/06/01 06:44:59;;;;;;;2.42;2.33;;;;;;;;;;5011582;28;20095;-77
2023/06/01 06:47:25;;;;;;;2.97;2.53;;;;;;;;;;5029867;28;20505;-77
2023/06/01 06:49:52;;;;;;;3.90;2.50;;;;;;;;;;5032527;28;20096;-77
2023/06/01 06:52:18;;;;;;;2.85;2.20;;;;;;;;;;5033329;28;20652;-77
2023/06/01 06:54:45;;;;;;;4.05;2.15;;;;;;;;;;5032065;28;20045;-77
2023/06/01 06:57:12;;;;;;;4.95;2.40;;;;;;;;;;5032986;28;20072;-77
2023/06/01 06:59:38;;;;;;;6.45;2.60;;;;;;;;;;4999122;28;20475;-77
2023/06/01 07:02:04;;;;;;;3.28;2.70;;;;;;;;;;5033211;28;20061;-77
2023/06/01 07:04:31;;;;;;;14.40;2.70;;;;;;;;;;5035146;28;20643;-77
2023/06/01 07:06:57;;;;;;;3.78;2.45;;;;;;;;;;5033761;28;20103;-77
2023/06/01 07:09:23;;;;;;;7.43;2.60;;;;;;;;;;5033512;28;20548;-78
2023/06/01 07:11:50;;;;;;;3.00;2.13;;;;;;;;;;5033499;28;20034;-77
2023/06/01 07:14:16;;;;;;;4.55;2.38;;;;;;;;;;5033684;28;20132;-78
2023/06/01 07:16:41;;;;;;;7.10;2.00;;;;;;;;;;5032966;28;20124;-78
2023/06/01 07:19:08;;;;;;;5.03;2.20;;;;;;;;;;5032688;28;20571;-77
2023/06/01 07:21:36;;;;;;;4.63;2.00;;;;;;;;;;5015399;28;20037;-77
2023/06/01 07:24:03;;;;;;;4.78;2.28;;;;;;;;;;5032751;28;20053;-77
2023/06/01 07:26:30;;;;;;;3.40;2.10;;;;;;;;;;5031632;28;20045;-77
2023/06/01 07:28:56;;;;;;;3.97;2.00;;;;;;;;;;5032693;28;20140;-77
2023/06/01 07:31:22;;;;;;;2.80;2.05;;;;;;;;;;5032286;28;20038;-77
2023/06/01 07:33:48;;;;;;;8.98;2.42;;;;;;;;;;5032735;28;20532;-77
2023/06/01 07:36:15;;;;;;;4.28;2.20;;;;;;;;;;5032738;28;20532;-77
2023/06/01 07:38:41;;;;;;;1.60;1.50;;;;;;;;;;5038146;28;20045;-77
2023/06/01 07:41:09;;;;;;;3.08;1.70;;;;;;;;;;5032877;28;20040;-77
2023/06/01 07:43:38;;;;;;;4.47;1.98;;;;;;;;;;5032874;28;20052;-77
2023/06/01 07:46:05;;;;;;;7.13;2.05;;;;;;;;;;5032163;28;20043;-77
2023/06/01 07:48:35;;;;;;;2.92;2.30;;;;;;;;;;5032513;28;20042;-77
2023/06/01 07:51:04;;;;;;;4.50;2.15;;;;;;;;;;5032036;28;20045;-77
2023/06/01 07:53:31;;;;;;;8.38;2.70;;;;;;;;;;5032494;28;20060;-77
2023/06/01 07:55:57;;;;;;;1.80;1.70;;;;;;;;;;5032155;28;20048;-77
2023/06/01 07:58:23;;;;;;;2.83;2.10;;;;;;;;;;5032002;28;20111;-78
2023/06/01 08:00:50;;;;;;;3.05;2.13;;;;;;;;;;5013886;28;20045;-78
2023/06/01 08:03:20;;;;;;;4.82;2.08;;;;;;;;;;5032373;28;20417;-78
2023/06/01 08:05:46;;;;;;;4.43;2.50;;;;;;;;;;5032273;28;20041;-78
2023/06/01 08:08:15;;;;;;;3.80;2.17;;;;;;;;;;5014481;28;20103;-79
2023/06/01 08:10:41;;;;;;;5.13;2.47;;;;;;;;;;5032087;28;20037;-78
2023/06/01 08:13:08;;;;;;;3.78;2.10;;;;;;;;;;5032161;28;20115;-78
2023/06/01 08:15:36;;;;;;;4.07;2.05;;;;;;;;;;5032057;28;20345;-77
2023/06/01 08:18:03;;;;;;;2.22;2.00;;;;;;;;;;5032142;28;20053;-78
2023/06/01 08:20:30;;;;;;;1.90;1.75;;;;;;;;;;5032112;28;20037;-78
2023/06/01 08:22:56;;;;;;;5.53;2.10;;;;;;;;;;5032089;28;20121;-78
2023/06/01 08:25:23;;;;;;;5.28;2.17;;;;;;;;;;5031519;28;20099;-78
2023/06/01 08:27:49;;;;;;;3.47;2.30;;;;;;;;;;5013874;28;20049;-78
2023/06/01 08:30:15;;;;;;;3.03;1.75;;;;;;;;;;5031720;28;20068;-78
2023/06/01 08:32:42;;;;;;;5.22;2.00;;;;;;;;;;5032148;28;20057;-79
2023/06/01 08:35:08;;;;;;;5.80;2.10;;;;;;;;;;5031767;28;20041;-78
2023/06/01 08:37:35;;;;;;;5.05;2.17;;;;;;;;;;5031921;28;20041;-78
2023/06/01 08:40:01;;;;;;;3.13;2.38;;;;;;;;;;4998008;28;20549;-78
2023/06/01 08:42:54;;;;;;;2.90;2.28;;;;;;;;;;5031612;28;20052;-78
2023/06/01 08:45:21;;;;;;;2.67;1.92;;;;;;;;;;4994277;28;20476;-78
2023/06/01 08:47:47;;;;;;;5.18;2.15;;;;;;;;;;5031819;28;20084;-79
2023/06/01 08:50:14;;;;;;;2.80;2.00;;;;;;;;;;5031001;28;20044;-75
2023/06/01 08:52:43;;;;;;;2.33;2.10;;;;;;;;;;5014092;28;20057;-75
2023/06/01 08:55:09;;;;;;;3.33;2.38;;;;;;;;;;5030837;28;20043;-75
2023/06/01 08:57:40;;;;;;;4.28;2.13;;;;;;;;;;5031324;28;20057;-75
2023/06/01 09:00:06;;;;;;;9.55;2.13;;;;;;;;;;5031597;28;20308;-76
2023/06/01 09:02:32;;;;;;;5.85;2.67;;;;;;;;;;5039712;28;20049;-76
2023/06/01 09:04:59;;;;;;;5.65;2.75;;;;;;;;;;5023124;28;20131;-74
2023/06/01 09:07:27;;;;;;;6.18;2.13;;;;;;;;;;5033139;28;20048;-76
2023/06/01 09:09:53;;;;;;;9.00;2.38;;;;;;;;;;5013116;28;20541;-76
2023/06/01 09:12:25;;;;;;;4.22;1.90;;;;;;;;;;5012266;28;20053;-76
2023/06/01 09:15:18;;;;;;;6.38;2.40;;;;;;;;;;5031126;28;20041;-76
2023/06/01 09:17:48;;;;;;;6.35;2.10;;;;;;;;;;5026413;28;20075;-76
2023/06/01 09:20:17;;;;;;;3.33;2.08;;;;;;;;;;5030808;28;20041;-76
2023/06/01 09:22:43;;;;;;;3.03;1.80;;;;;;;;;;5028329;28;20057;-75
2023/06/01 09:25:10;;;;;;;2.90;2.40;;;;;;;;;;5003774;28;20429;-76
2023/06/01 09:27:49;;;;;;;5.88;2.25;;;;;;;;;;5031244;28;20153;-75
2023/06/01 09:30:16;;;;;;;5.03;2.05;;;;;;;;;;5030691;28;20048;-76
2023/06/01 09:32:42;;;;;;;7.88;2.45;;;;;;;;;;5030939;28;20115;-76
2023/06/01 09:35:09;;;;;;;4.95;2.17;;;;;;;;;;5030285;28;21044;-76
2023/06/01 09:37:36;;;;;;;4.20;1.90;;;;;;;;;;5012869;28;20092;-76
2023/06/01 09:40:23;;;;;;;7.10;2.93;;;;;;;;;;5030408;28;20416;-76
2023/06/01 09:42:50;;;;;;;3.90;2.05;;;;;;;;;;5030203;28;20049;-76
2023/06/01 09:45:18;;;;;;;2.95;2.00;;;;;;;;;;5029828;28;20034;-76
2023/06/01 09:47:44;;;;;;;2.30;2.03;;;;;;;;;;4996305;28;20132;-76
2023/06/01 09:50:11;;;;;;;2.83;1.90;;;;;;;;;;5012440;28;20038;-76
2023/06/01 09:52:37;;;;;;;5.20;1.88;;;;;;;;;;5030264;28;20053;-76
2023/06/01 09:55:07;;;;;;;2.13;1.45;;;;;;;;;;5012946;28;20141;-76
2023/06/01 09:57:34;;;;;;;2.85;2.00;;;;;;;;;;5030489;28;20135;-76
2023/06/01 10:00:05;;;;;;;2.08;1.92;;;;;;;;;;5013385;28;20065;-76
2023/06/01 10:02:31;;;;;;;6.03;1.77;;;;;;;;;;5013114;28;20057;-76
2023/06/01 10:04:58;;;;;;;4.53;2.15;;;;;;;;;;5029128;28;20488;-76
2023/06/01 10:07:28;;;;;;;2.95;1.85;;;;;;;;;;5012550;28;20047;-77
2023/06/01 10:09:54;;;;;;;6.38;2.20;;;;;;;;;;5012675;28;20115;-76
2023/06/01 10:12:21;;;;;;;3.35;2.03;;;;;;;;;;5012428;28;20129;-77
2023/06/01 10:14:47;;;;;;;8.38;2.10;;;;;;;;;;5012611;28;20040;-77
2023/06/01 10:17:16;;;;;;;5.90;2.20;;;;;;;;;;5029607;28;20037;-76
2023/06/01 10:19:42;;;;;;;2.85;2.00;;;;;;;;;;5029786;28;20060;-76
2023/06/01 10:22:08;;;;;;;4.38;2.03;;;;;;;;;;5012087;28;20513;-76
2023/06/01 10:24:35;;;;;;;3.13;2.17;;;;;;;;;;5032341;28;20185;-76
2023/06/01 10:27:06;;;;;;;2.92;1.90;;;;;;;;;;5033820;28;20056;-76
2023/06/01 10:29:33;;;;;;;2.55;2.20;;;;;;;;;;5034025;28;20046;-76
2023/06/01 10:32:01;;;;;;;3.03;2.17;;;;;;;;;;5033816;28;20111;-77
2023/06/01 10:34:42;;;;;;;2.97;2.20;;;;;;;;;;5016125;28;20052;-76
2023/06/01 10:37:08;;;;;;;2.13;1.65;;;;;;;;;;5033731;28;20132;-76
2023/06/01 10:39:35;;;;;;;5.40;2.20;;;;;;;;;;5016021;28;20512;-76
2023/06/01 10:42:13;;;;;;;5.55;1.90;;;;;;;;;;5033440;28;20049;-76
2023/06/01 10:44:44;;;;;;;4.53;1.85;;;;;;;;;;5033788;28;20337;-76
2023/06/01 10:47:10;;;;;;;;;;;;;;;;;;5016191;28;20516;-76
2023/06/01 10:49:49;;;;;;;8.68;2.33;;;;;;;;;;5033338;28;19920;-76
2023/06/01 10:52:24;;;;;;;3.35;2.20;;;;;;;;;;5033089;28;20617;-76
2023/06/01 10:54:51;;;;;;;8.95;2.25;;;;;;;;;;5015886;28;20077;-77
2023/06/01 10:57:26;;;;;;;2.10;1.90;;;;;;;;;;5032972;28;20037;-75
2023/06/01 11:00:13;;;;;;;3.20;2.00;;;;;;;;;;5015752;28;20114;-76
2023/06/01 11:03:05;;;;;;;2.28;2.08;;;;;;;;;;5033287;28;20505;-76
2023/06/01 11:05:35;;;;;;;5.07;2.00;;;;;;;;;;5011502;28;20049;-76
2023/06/01 11:08:02;;;;;;;6.18;3.30;;;;;;;;;;5017492;28;20045;-74
2023/06/01 11:10:47;;;;;;;2.55;2.35;;;;;;;;;;4983154;28;20087;-76
2023/06/01 11:13:17;;;;;;;6.72;2.00;;;;;;;;;;5033013;28;20075;-76
2023/06/01 11:16:02;;;;;;;5.72;2.03;;;;;;;;;;5033246;28;20069;-76
2023/06/01 11:18:41;;;;;;;2.00;1.90;;;;;;;;;;5033021;28;20509;-76
2023/06/01 11:21:12;;;;;;;2.45;1.95;;;;;;;;;;5032828;28;20052;-76
2023/06/01 11:23:38;;;;;;;9.02;2.10;;;;;;;;;;5015118;28;20671;-75
2023/06/01 11:26:05;;;;;;;3.72;1.83;;;;;;;;;;5032739;28;20047;-76
2023/06/01 11:28:31;;;;;;;3.63;2.17;;;;;;;;;;5015177;28;20053;-76
2023/06/01 11:30:59;;;;;;;4.47;2.10;;;;;;;;;;5032816;28;20037;-76
2023/06/01 11:33:26;;;;;;;4.85;1.88;;;;;;;;;;5032963;28;20107;-76
2023/06/01 11:35:59;;;;;;;4.53;1.77;;;;;;;;;;5032073;28;20087;-76
2023/06/01 11:38:38;;;;;;;5.25;2.08;;;;;;;;;;5015911;28;20045;-75
2023/06/01 11:41:04;;;;;;;4.20;1.70;;;;;;;;;;5032814;28;20533;-76
2023/06/01 11:43:31;;;;;;;4.97;2.03;;;;;;;;;;5033315;28;20072;-76
2023/06/01 11:46:15;;;;;;;5.60;1.83;;;;;;;;;;5032796;28;20576;-76
2023/06/01 11:48:42;;;;;;;2.63;2.10;;;;;;;;;;5015176;28;20053;-76
2023/06/01 11:51:08;;;;;;;2.75;2.10;;;;;;;;;;5032351;28;20044;-76
2023/06/01 11:53:34;;;;;;;2.03;1.58;;;;;;;;;;5032516;28;20063;-76
2023/06/01 11:56:02;;;;;;;4.88;1.80;;;;;;;;;;5033029;28;20043;-76
2023/06/01 11:58:28;;;;;;;1.27;1.27;;;;;;;;;;5033513;28;20049;-77
2023/06/01 12:00:56;;;;;;;2.28;1.88;;;;;;;;;;5036188;28;20467;-76
2023/06/01 12:03:23;;;;;;;2.30;1.80;;;;;;;;;;5017201;28;20057;-76
2023/06/01 12:05:50;;;;;;;2.55;2.15;;;;;;;;;;5035070;28;20041;-76
2023/06/01 12:08:20;;;;;;;8.07;2.00;;;;;;;;;;5015286;28;20110;-76
2023/06/01 12:10:47;;;;;;;3.63;2.25;;;;;;;;;;5015199;28;20049;-77
2023/06/01 12:13:16;;;;;;;2.00;1.80;;;;;;;;;;5034985;28;20052;-77
2023/06/01 12:15:43;;;;;;;3.28;1.75;;;;;;;;;;5015407;28;20456;-76
2023/06/01 12:18:09;;;;;;;1.65;1.50;;;;;;;;;;5032366;28;20072;-76
2023/06/01 12:20:43;;;;;;;8.82;3.08;;;;;;;;;;5034491;28;20052;-76
2023/06/01 12:23:18;;;;;;;3.03;2.30;;;;;;;;;;5020159;28;20128;-76
2023/06/01 12:25:53;;;;;;;6.35;1.88;;;;;;;;;;5033346;28;20080;-76
2023/06/01 12:28:20;;;;;;;2.03;1.65;;;;;;;;;;5032023;28;20083;-76
2023/06/01 12:30:46;;;;;;;3.80;1.98;;;;;;;;;;5031579;28;20069;-76
2023/06/01 12:33:31;;;;;;;2.72;2.50;;;;;;;;;;5031619;28;20065;-76
2023/06/01 12:35:56;;;;;;;4.10;1.70;;;;;;;;;;5014022;28;20057;-75
2023/06/01 12:38:23;;;;;;;4.07;2.03;;;;;;;;;;5031858;28;20037;-76
2023/06/01 12:41:04;;;;;;;2.10;2.00;;;;;;;;;;5031370;28;20049;-76
2023/06/01 12:43:31;;;;;;;2.70;2.10;;;;;;;;;;5013812;28;20429;-76
2023/06/01 12:45:57;;;;;;;5.07;2.42;;;;;;;;;;5031798;28;20080;-76
2023/06/01 12:48:29;;;;;;;5.53;2.25;;;;;;;;;;5031019;28;20076;-76
2023/06/01 12:50:55;;;;;;;4.22;1.73;;;;;;;;;;5032573;28;20045;-75
2023/06/01 12:53:22;;;;;;;7.50;2.30;;;;;;;;;;5032911;28;20045;-74
2023/06/01 12:55:48;;;;;;;6.68;1.90;;;;;;;;;;5031239;28;20051;-75
2023/06/01 12:58:14;;;;;;;2.83;2.10;;;;;;;;;;5030854;28;20045;-76
2023/06/01 13:00:40;;;;;;;4.28;2.15;;;;;;;;;;5030899;28;20124;-75
2023/06/01 13:03:07;;;;;;;3.90;2.05;;;;;;;;;;5031083;28;20052;-75
2023/06/01 13:05:33;;;;;;;13.35;2.10;;;;;;;;;;5013363;28;20041;-75
2023/06/01 13:07:59;;;;;;;3.30;2.25;;;;;;;;;;5031402;28;20041;-76
2023/06/01 13:10:26;;;;;;;4.50;2.10;;;;;;;;;;5030968;28;20128;-77
2023/06/01 13:12:52;;;;;;;4.32;2.28;;;;;;;;;;5031257;28;20056;-75
2023/06/01 13:15:18;;;;;;;5.28;2.53;;;;;;;;;;5030716;28;20041;-76
2023/06/01 13:17:44;;;;;;;4.40;2.00;;;;;;;;;;5012962;28;20064;-75
2023/06/01 13:20:11;;;;;;;5.72;2.47;;;;;;;;;;5030712;28;20090;-76
2023/06/01 13:22:38;;;;;;;5.18;2.20;;;;;;;;;;5012842;28;20041;-76
2023/06/01 13:25:04;;;;;;;4.22;2.25;;;;;;;;;;5013149;28;20049;-76
2023/06/01 13:27:31;;;;;;;9.32;2.42;;;;;;;;;;5030443;28;20046;-76
2023/06/01 13:29:57;;;;;;;5.80;2.13;;;;;;;;;;5013079;28;20156;-77
2023/06/01 13:32:23;;;;;;;5.55;2.03;;;;;;;;;;5030060;28;20053;-75
2023/06/01 13:34:50;;;;;;;4.88;2.15;;;;;;;;;;5030590;28;20520;-75
2023/06/01 13:37:16;;;;;;;2.00;1.90;;;;;;;;;;5030496;28;20045;-76
2023/06/01 13:39:42;;;;;;;3.33;2.28;;;;;;;;;;5030593;28;20472;-76
2023/06/01 13:42:08;;;;;;;7.63;2.25;;;;;;;;;;5030467;28;20295;-75
2023/06/01 13:44:34;;;;;;;4.30;2.40;;;;;;;;;;5030286;28;20228;-75
2023/06/01 13:47:01;;;;;;;3.25;2.42;;;;;;;;;;5028962;28;20128;-76
2023/06/01 13:49:27;;;;;;;6.57;2.28;;;;;;;;;;5030117;28;20041;-76
2023/06/01 13:51:53;;;;;;;3.15;2.10;;;;;;;;;;5012634;28;20413;-75
2023/06/01 13:54:20;;;;;;;3.17;2.10;;;;;;;;;;5030427;28;20073;-76
2023/06/01 13:56:46;;;;;;;4.30;2.10;;;;;;;;;;5030211;28;20076;-76
2023/06/01 13:59:12;;;;;;;3.83;2.10;;;;;;;;;;5030135;28;20497;-75
2023/06/01 14:01:38;;;;;;;3.33;2.08;;;;;;;;;;5012536;28;20038;-77
2023/06/01 14:04:04;;;;;;;9.05;2.40;;;;;;;;;;5030055;28;20053;-77
2023/06/01 14:06:30;;;;;;;4.50;2.03;;;;;;;;;;5029608;28;20133;-75
2023/06/01 14:08:56;;;;;;;3.00;2.00;;;;;;;;;;5030065;28;20038;-77
2023/06/01 14:11:22;;;;;;;7.47;2.30;;;;;;;;;;5030010;28;20441;-77
2023/06/01 14:13:48;;;;;;;6.20;2.80;;;;;;;;;;5029756;28;20049;-77
2023/06/01 14:16:14;;;;;;;2.00;1.90;;;;;;;;;;5029904;28;20038;-77
2023/06/01 14:18:40;;;;;;;11.57;2.38;;;;;;;;;;5029656;28;20195;-76
2023/06/01 14:21:06;;;;;;;4.57;2.30;;;;;;;;;;5012227;28;20069;-76
2023/06/01 14:23:32;;;;;;;5.53;2.35;;;;;;;;;;5029590;28;20080;-76
2023/06/01 14:25:58;;;;;;;4.25;2.15;;;;;;;;;;5029972;28;20383;-76
2023/06/01 14:28:24;;;;;;;3.05;2.30;;;;;;;;;;5030039;28;20032;-77
2023/06/01 14:30:50;;;;;;;8.30;2.70;;;;;;;;;;5029953;28;20055;-77
2023/06/01 14:33:16;;;;;;;6.22;2.33;;;;;;;;;;5029757;28;20429;-78
2023/06/01 14:35:43;;;;;;;6.18;2.28;;;;;;;;;;5032507;28;20549;-78
2023/06/01 14:38:09;;;;;;;4.13;2.25;;;;;;;;;;5033110;28;20052;-78
2023/06/01 14:40:35;;;;;;;5.80;2.47;;;;;;;;;;5030071;28;20049;-76
2023/06/01 14:43:01;;;;;;;5.55;2.55;;;;;;;;;;5012794;28;20107;-76
2023/06/01 14:45:27;;;;;;;5.18;2.53;;;;;;;;;;5029959;28;20046;-75
2023/06/01 14:47:53;;;;;;;4.47;2.40;;;;;;;;;;5012566;28;20045;-76